Time;durP1;ratioP1;P1;durP2;ratioP2;P2;SDS_P1;SDS_P2;PMS_P1;PMS_P2;Temp;Humidity;BMP_temperature;BMP_pressure;BME280_temperature;BME280_humidity;BME280_pressure;Samples;Min_cycle;Max_cycle;Signal;HPM_P1;HPM_P2
2022/08/27 00:01:31;;;;;;;7.32;1.80;;;16.00;99.90;;;;;;5033758;28;20076;-36
2022/08/27 00:03:57;;;;;;;6.18;2.13;;;16.00;99.90;;;;;;5038740;28;20042;-36
2022/08/27 00:06:24;;;;;;;5.10;2.00;;;15.90;99.90;;;;;;5035188;28;20041;-36
2022/08/27 00:08:51;;;;;;;7.88;2.20;;;15.90;99.90;;;;;;5032829;28;20045;-36
2022/08/27 00:11:18;;;;;;;6.22;2.10;;;15.90;99.90;;;;;;5041478;28;20041;-35
2022/08/27 00:13:44;;;;;;;5.20;1.98;;;15.90;99.90;;;;;;5037726;28;20525;-36
2022/08/27 00:16:12;;;;;;;4.88;2.30;;;15.90;99.90;;;;;;5033598;28;20033;-35
2022/08/27 00:18:38;;;;;;;5.75;1.88;;;15.90;99.90;;;;;;5033502;28;20041;-36
2022/08/27 00:21:05;;;;;;;6.13;2.10;;;15.80;99.90;;;;;;5032567;28;20111;-35
2022/08/27 00:23:31;;;;;;;3.25;1.90;;;15.80;99.90;;;;;;5037192;28;20136;-35
2022/08/27 00:25:57;;;;;;;5.63;2.15;;;15.80;99.90;;;;;;5041764;28;20166;-36
2022/08/27 00:28:25;;;;;;;5.10;2.47;;;15.80;99.90;;;;;;5041865;28;20049;-35
2022/08/27 00:30:51;;;;;;;7.57;2.22;;;15.70;99.90;;;;;;5036428;28;20482;-36
2022/08/27 00:33:17;;;;;;;4.90;2.05;;;15.70;99.90;;;;;;5037379;28;20044;-36
2022/08/27 00:35:42;;;;;;;5.30;2.15;;;15.70;99.90;;;;;;5034259;28;20030;-36
2022/08/27 00:38:08;;;;;;;4.05;1.85;;;15.70;99.90;;;;;;5037690;28;20096;-37
2022/08/27 00:40:34;;;;;;;5.80;2.00;;;15.70;99.90;;;;;;5045497;28;20120;-36
2022/08/27 00:43:02;;;;;;;3.83;1.98;;;15.70;99.90;;;;;;5036006;28;20073;-37
2022/08/27 00:45:29;;;;;;;4.75;1.73;;;15.70;99.90;;;;;;5036588;28;20483;-37
2022/08/27 00:47:58;;;;;;;6.00;2.28;;;15.60;99.90;;;;;;5034929;28;20049;-37
2022/08/27 00:50:42;;;;;;;5.15;2.25;;;15.60;99.90;;;;;;5038653;28;20048;-36
2022/08/27 00:53:12;;;;;;;5.70;2.15;;;15.50;99.90;;;;;;5041264;28;20033;-37
2022/08/27 00:55:48;;;;;;;5.70;2.20;;;15.50;99.90;;;;;;5042097;28;20049;-35
2022/08/27 00:58:20;;;;;;;6.30;2.60;;;15.50;99.90;;;;;;5041819;28;20032;-35
2022/08/27 01:00:46;;;;;;;5.90;2.28;;;15.50;99.90;;;;;;5044230;28;20047;-37
2022/08/27 01:03:13;;;;;;;4.38;1.80;;;15.50;99.90;;;;;;5041579;28;20041;-35
2022/08/27 01:05:41;;;;;;;5.05;2.05;;;15.40;99.90;;;;;;5040356;28;20074;-35
2022/08/27 01:08:17;;;;;;;3.15;1.92;;;15.40;99.90;;;;;;5041006;28;20490;-36
2022/08/27 01:10:45;;;;;;;7.32;2.40;;;15.40;99.90;;;;;;5040623;28;20123;-36
2022/08/27 01:13:14;;;;;;;4.97;1.85;;;15.40;99.90;;;;;;5041798;28;20116;-35
2022/08/27 01:15:40;;;;;;;3.60;1.98;;;15.40;99.90;;;;;;5041049;28;20041;-36
2022/08/27 01:18:08;;;;;;;4.80;1.90;;;15.40;99.90;;;;;;5044217;28;20033;-36
2022/08/27 01:21:09;;;;;;;6.00;2.28;;;15.40;99.90;;;;;;5035882;28;20057;-36
2022/08/27 01:23:49;;;;;;;4.20;2.30;;;15.40;99.90;;;;;;5030259;28;20124;-35
2022/08/27 01:26:16;;;;;;;3.17;1.90;;;15.40;99.90;;;;;;5046623;28;20080;-36
2022/08/27 01:28:43;;;;;;;5.55;2.50;;;15.30;99.90;;;;;;5040535;28;20042;-36
2022/08/27 01:31:10;;;;;;;4.75;2.25;;;15.30;99.90;;;;;;5042949;28;20384;-35
2022/08/27 01:33:37;;;;;;;5.93;2.40;;;15.30;99.90;;;;;;5040747;28;20071;-35
2022/08/27 01:36:03;;;;;;;4.10;2.28;;;15.30;99.90;;;;;;5042045;28;20098;-36
2022/08/27 01:38:30;;;;;;;5.38;2.58;;;15.30;99.90;;;;;;5044328;28;20072;-35
2022/08/27 01:40:56;;;;;;;5.07;2.30;;;15.20;99.90;;;;;;5044890;28;20037;-35
2022/08/27 01:43:22;;;;;;;5.40;2.60;;;15.20;99.90;;;;;;5037500;28;20098;-35
2022/08/27 01:45:49;;;;;;;4.72;2.47;;;15.20;99.90;;;;;;5041444;28;20491;-35
2022/08/27 01:48:18;;;;;;;6.70;2.13;;;15.20;99.90;;;;;;5041743;28;20382;-36
2022/08/27 01:50:44;;;;;;;5.30;2.30;;;15.20;99.90;;;;;;5036008;28;20522;-35
2022/08/27 01:53:13;;;;;;;5.03;2.17;;;15.10;99.90;;;;;;5040635;28;20037;-35
2022/08/27 01:55:40;;;;;;;5.22;2.30;;;15.10;99.90;;;;;;5042893;28;20032;-35
2022/08/27 01:58:06;;;;;;;5.68;2.10;;;15.10;99.90;;;;;;5040234;28;20041;-36
2022/08/27 02:00:36;;;;;;;5.07;2.67;;;15.00;99.90;;;;;;5034489;28;20115;-35
2022/08/27 02:03:03;;;;;;;4.78;2.30;;;15.00;99.90;;;;;;5035504;28;20045;-35
2022/08/27 02:05:29;;;;;;;5.50;2.60;;;15.00;99.90;;;;;;5042448;28;20048;-35
2022/08/27 02:07:55;;;;;;;4.80;2.70;;;15.00;99.90;;;;;;5035908;28;20041;-36
2022/08/27 02:10:33;;;;;;;4.18;2.55;;;15.00;99.90;;;;;;5036277;28;20072;-35
2022/08/27 02:13:00;;;;;;;4.75;2.75;;;15.00;99.90;;;;;;5042632;28;20044;-35
2022/08/27 02:15:25;;;;;;;9.23;3.63;;;14.90;99.90;;;;;;5045047;28;20536;-35
2022/08/27 02:17:51;;;;;;;6.93;2.55;;;14.90;99.90;;;;;;5045288;28;20040;-36
2022/08/27 02:20:18;;;;;;;6.00;2.75;;;14.90;99.90;;;;;;5037135;28;20634;-35
2022/08/27 02:22:45;;;;;;;5.75;2.63;;;14.90;99.90;;;;;;5037556;28;20098;-36
2022/08/27 02:25:12;;;;;;;7.45;3.17;;;14.90;99.90;;;;;;5028383;28;20033;-36
2022/08/27 02:27:40;;;;;;;8.95;3.05;;;14.80;99.90;;;;;;5040632;28;20162;-36
2022/08/27 02:30:08;;;;;;;6.40;3.17;;;14.80;99.90;;;;;;5037472;28;20044;-36
2022/08/27 02:32:34;;;;;;;4.35;1.95;;;14.80;99.90;;;;;;5061418;28;20036;-36
2022/08/27 02:35:00;;;;;;;7.22;2.55;;;14.70;99.90;;;;;;5033710;28;20049;-35
2022/08/27 02:37:27;;;;;;;9.02;2.67;;;14.70;99.90;;;;;;5040197;28;20407;-36
2022/08/27 02:39:52;;;;;;;6.18;2.78;;;14.70;99.90;;;;;;5039894;28;20510;-36
2022/08/27 02:42:18;;;;;;;5.65;2.83;;;14.70;99.90;;;;;;5038699;28;20041;-35
2022/08/27 02:44:44;;;;;;;5.28;2.80;;;14.70;99.90;;;;;;5041708;28;20050;-36
2022/08/27 02:47:10;;;;;;;4.53;2.63;;;14.70;99.90;;;;;;5038501;28;20045;-35
2022/08/27 02:49:36;;;;;;;7.85;2.53;;;14.70;99.90;;;;;;5038209;28;20394;-35
2022/08/27 02:52:02;;;;;;;4.25;2.58;;;14.70;99.90;;;;;;5041143;28;20035;-35
2022/08/27 02:54:28;;;;;;;3.60;2.00;;;14.70;99.90;;;;;;5041301;28;20044;-35
2022/08/27 02:56:54;;;;;;;5.43;2.50;;;14.70;99.90;;;;;;5037486;28;20041;-35
2022/08/27 02:59:20;;;;;;;4.47;2.22;;;14.60;99.90;;;;;;5034086;28;20076;-35
2022/08/27 03:01:46;;;;;;;7.47;2.75;;;14.60;99.90;;;;;;5035585;28;20046;-35
2022/08/27 03:04:13;;;;;;;6.50;2.78;;;14.60;99.90;;;;;;5038578;28;20489;-35
2022/08/27 03:06:39;;;;;;;5.53;3.22;;;14.60;99.90;;;;;;5032427;28;20069;-35
2022/08/27 03:09:05;;;;;;;4.78;2.58;;;14.50;99.90;;;;;;5040215;28;20519;-35
2022/08/27 03:11:31;;;;;;;6.68;3.08;;;14.60;99.90;;;;;;5032698;28;20483;-35
2022/08/27 03:13:57;;;;;;;5.35;3.15;;;14.50;99.90;;;;;;5038783;28;20148;-35
2022/08/27 03:16:24;;;;;;;6.00;2.58;;;14.50;99.90;;;;;;5039392;28;20044;-35
2022/08/27 03:18:50;;;;;;;5.85;2.97;;;14.50;99.90;;;;;;5039544;28;20052;-36
2022/08/27 03:21:22;;;;;;;5.35;2.95;;;14.40;99.90;;;;;;5038389;28;20458;-35
2022/08/27 03:23:49;;;;;;;;;;;14.40;99.90;;;;;;5032022;28;20038;-35
2022/08/27 03:26:16;;;;;;;4.72;2.28;;;14.40;99.90;;;;;;5044960;28;19916;-36
2022/08/27 03:28:42;;;;;;;6.07;2.95;;;14.40;99.90;;;;;;5039230;28;20127;-36
2022/08/27 03:31:14;;;;;;;5.45;2.70;;;14.40;99.90;;;;;;5038864;28;20172;-36
2022/08/27 03:33:42;;;;;;;5.68;3.38;;;14.40;99.90;;;;;;5035302;28;20076;-36
2022/08/27 03:36:08;;;;;;;4.97;3.20;;;14.40;99.90;;;;;;5043384;28;20117;-35
2022/08/27 03:38:35;;;;;;;6.72;2.83;;;14.40;99.90;;;;;;5038471;28;20077;-36
2022/08/27 03:41:02;;;;;;;6.50;3.28;;;14.40;99.90;;;;;;5037985;28;20049;-36
2022/08/27 03:43:28;;;;;;;5.57;2.78;;;14.40;99.90;;;;;;5043089;28;20052;-36
2022/08/27 03:45:54;;;;;;;7.20;3.88;;;14.40;99.90;;;;;;5037875;28;20041;-36
2022/08/27 03:48:19;;;;;;;6.10;3.30;;;14.40;99.90;;;;;;5038269;28;20045;-36
2022/08/27 03:50:47;;;;;;;6.00;2.90;;;14.30;99.90;;;;;;5024127;28;20102;-35
2022/08/27 03:53:14;;;;;;;4.75;3.05;;;14.30;99.90;;;;;;5034601;28;20033;-36
2022/08/27 03:55:42;;;;;;;6.72;3.72;;;14.30;99.90;;;;;;5041901;28;20025;-36
2022/08/27 03:58:09;;;;;;;6.32;3.05;;;14.30;99.90;;;;;;5036391;28;20099;-35
2022/08/27 04:00:36;;;;;;;5.35;3.28;;;14.20;99.90;;;;;;5038953;28;20045;-36
2022/08/27 04:03:04;;;;;;;4.82;3.05;;;14.20;99.90;;;;;;5040173;28;20050;-36
2022/08/27 04:05:29;;;;;;;8.27;3.08;;;14.20;99.90;;;;;;5037455;28;20107;-36
2022/08/27 04:07:55;;;;;;;5.25;3.30;;;14.20;99.90;;;;;;5041729;28;20041;-36
2022/08/27 04:10:21;;;;;;;10.23;3.42;;;14.10;99.90;;;;;;5033167;28;20046;-36
2022/08/27 04:12:46;;;;;;;5.75;3.17;;;14.10;99.90;;;;;;5040079;28;20045;-36
2022/08/27 04:15:12;;;;;;;6.90;3.50;;;14.10;99.90;;;;;;5044845;28;20041;-36
2022/08/27 04:17:39;;;;;;;7.15;3.40;;;14.00;99.90;;;;;;5037501;28;20200;-36
2022/08/27 04:20:07;;;;;;;5.50;2.88;;;14.00;99.90;;;;;;5040789;28;20562;-35
2022/08/27 04:22:32;;;;;;;4.95;2.85;;;14.00;99.90;;;;;;5038033;28;20132;-36
2022/08/27 04:24:59;;;;;;;6.85;3.58;;;14.00;99.90;;;;;;5036911;28;20443;-36
2022/08/27 04:27:25;;;;;;;4.93;2.63;;;14.00;99.90;;;;;;5034507;28;20041;-36
2022/08/27 04:29:58;;;;;;;6.15;3.55;;;14.00;99.90;;;;;;5038392;28;20123;-36
2022/08/27 04:32:26;;;;;;;5.03;3.13;;;14.00;99.90;;;;;;5035274;28;20037;-35
2022/08/27 04:34:56;;;;;;;5.72;2.80;;;13.90;99.90;;;;;;5035681;28;20029;-36
2022/08/27 04:37:23;;;;;;;6.43;3.28;;;14.00;99.90;;;;;;5046862;28;20036;-36
2022/08/27 04:39:50;;;;;;;4.40;2.47;;;14.00;99.90;;;;;;5040256;28;20037;-36
2022/08/27 04:42:17;;;;;;;4.80;2.78;;;14.00;99.90;;;;;;5046883;28;20036;-36
2022/08/27 04:44:43;;;;;;;5.60;2.75;;;14.00;99.90;;;;;;5042488;28;20501;-36
2022/08/27 04:47:09;;;;;;;5.35;2.63;;;14.00;99.90;;;;;;5042991;28;20473;-35
2022/08/27 04:49:35;;;;;;;6.35;3.13;;;14.00;99.90;;;;;;5044569;28;20045;-35
2022/08/27 04:52:02;;;;;;;4.93;2.90;;;14.00;99.90;;;;;;5038184;28;21055;-36
2022/08/27 04:54:28;;;;;;;5.95;3.22;;;14.00;99.90;;;;;;5045023;28;20049;-36
2022/08/27 04:56:54;;;;;;;5.30;2.67;;;14.00;99.90;;;;;;5040134;28;20057;-35
2022/08/27 04:59:20;;;;;;;8.43;2.92;;;14.00;99.90;;;;;;5039971;28;20052;-35
2022/08/27 05:01:46;;;;;;;5.43;2.67;;;14.00;99.90;;;;;;5039919;28;20117;-36
2022/08/27 05:04:14;;;;;;;5.20;2.80;;;14.10;99.90;;;;;;5039609;28;20098;-35
2022/08/27 05:06:40;;;;;;;5.45;2.67;;;14.10;99.90;;;;;;5044015;28;20491;-36
2022/08/27 05:09:06;;;;;;;5.32;3.17;;;14.10;99.90;;;;;;5042471;28;20037;-36
2022/08/27 05:11:33;;;;;;;4.22;2.38;;;14.10;99.90;;;;;;5043269;28;20033;-36
2022/08/27 05:14:04;;;;;;;5.75;2.90;;;14.10;99.90;;;;;;5036637;28;20513;-36
2022/08/27 05:16:30;;;;;;;4.43;2.45;;;14.10;99.90;;;;;;5042697;28;20555;-36
2022/08/27 05:18:57;;;;;;;4.28;2.17;;;14.10;99.90;;;;;;5036295;28;20147;-36
2022/08/27 05:21:26;;;;;;;6.03;3.00;;;14.20;99.90;;;;;;5039891;28;20543;-35
2022/08/27 05:23:54;;;;;;;5.60;2.78;;;14.20;99.90;;;;;;5042175;28;20052;-36
2022/08/27 05:26:20;;;;;;;5.38;2.70;;;14.20;99.90;;;;;;5039605;28;20084;-36
2022/08/27 05:28:47;;;;;;;4.30;2.40;;;14.20;99.90;;;;;;5048182;28;20499;-36
2022/08/27 05:31:14;;;;;;;4.20;2.50;;;14.20;99.90;;;;;;5039864;28;20560;-36
2022/08/27 05:33:41;;;;;;;5.15;2.67;;;14.20;99.90;;;;;;5035959;28;20123;-36
2022/08/27 05:36:13;;;;;;;4.55;2.80;;;14.30;99.90;;;;;;5043476;28;20573;-36
2022/08/27 05:38:39;;;;;;;4.43;2.42;;;14.30;99.90;;;;;;5042852;28;20482;-36
2022/08/27 05:41:08;;;;;;;4.35;2.65;;;14.30;99.90;;;;;;5040188;28;20048;-36
2022/08/27 05:43:38;;;;;;;7.13;2.65;;;14.40;99.90;;;;;;5038517;28;20045;-36
2022/08/27 05:46:10;;;;;;;6.25;2.65;;;14.40;99.90;;;;;;5036835;28;20116;-36
2022/08/27 05:48:38;;;;;;;6.78;2.50;;;14.40;99.90;;;;;;5040135;28;20041;-35
2022/08/27 05:51:22;;;;;;;4.38;2.42;;;14.50;99.90;;;;;;5047177;28;20130;-36
2022/08/27 05:53:48;;;;;;;5.47;2.60;;;14.50;99.90;;;;;;5038079;28;20029;-35
2022/08/27 05:56:15;;;;;;;5.97;2.80;;;14.60;99.90;;;;;;5042737;28;20079;-35
2022/08/27 06:01:26;;;;;;;5.43;2.63;;;14.60;99.90;;;;;;5038928;28;20041;-35
2022/08/27 06:03:53;;;;;;;5.20;2.58;;;14.70;99.90;;;;;;5046124;28;20040;-36
2022/08/27 06:06:21;;;;;;;4.57;2.40;;;14.80;99.90;;;;;;5036279;28;20033;-35
2022/08/27 06:08:47;;;;;;;7.55;2.65;;;14.90;99.90;;;;;;5044236;28;20086;-36
2022/08/27 06:11:13;;;;;;;6.40;2.30;;;15.00;99.90;;;;;;5042185;28;20036;-36
2022/08/27 06:13:39;;;;;;;4.43;2.72;;;15.10;99.90;;;;;;5040202;28;20048;-36
2022/08/27 06:16:09;;;;;;;3.80;2.40;;;15.10;99.90;;;;;;5042538;28;20476;-36
2022/08/27 06:18:37;;;;;;;5.80;2.47;;;15.20;99.90;;;;;;5038022;28;20120;-36
2022/08/27 06:21:03;;;;;;;5.68;2.80;;;15.30;99.90;;;;;;5038747;28;20057;-39
2022/08/27 06:23:30;;;;;;;4.30;2.35;;;15.40;99.90;;;;;;5040215;28;20501;-35
2022/08/27 06:25:57;;;;;;;4.30;2.38;;;15.50;99.90;;;;;;5038597;28;20037;-35
2022/08/27 06:28:28;;;;;;;4.60;2.15;;;15.60;99.90;;;;;;5042460;28;20110;-37
2022/08/27 06:31:02;;;;;;;5.40;2.30;;;15.80;99.90;;;;;;5055769;28;20037;-36
2022/08/27 06:33:29;;;;;;;4.25;1.92;;;15.80;99.90;;;;;;5046927;28;20080;-36
2022/08/27 06:35:58;;;;;;;4.22;2.00;;;15.90;99.90;;;;;;5038125;28;20037;-36
2022/08/27 06:38:25;;;;;;;5.55;2.10;;;16.10;99.90;;;;;;5041923;28;20045;-36
2022/08/27 06:40:50;;;;;;;6.18;2.05;;;16.30;99.90;;;;;;5040963;28;20522;-36
2022/08/27 06:43:16;;;;;;;4.93;1.88;;;16.40;99.90;;;;;;5041725;28;20125;-36
2022/08/27 06:45:42;;;;;;;7.50;1.90;;;16.40;99.90;;;;;;5039612;28;20091;-36
2022/08/27 06:48:07;;;;;;;4.57;1.60;;;16.60;99.90;;;;;;5039866;28;20073;-36
2022/08/27 06:50:41;;;;;;;4.45;1.60;;;16.70;99.90;;;;;;5036027;28;20033;-36
2022/08/27 06:53:07;;;;;;;4.55;1.42;;;16.80;99.90;;;;;;5040685;28;20033;-37
2022/08/27 06:55:43;;;;;;;5.13;1.48;;;16.90;99.90;;;;;;5036774;28;20494;-36
2022/08/27 06:58:09;;;;;;;4.40;1.13;;;17.10;99.90;;;;;;5038517;28;20045;-35
2022/08/27 07:00:35;;;;;;;3.80;1.38;;;17.20;99.90;;;;;;5036929;28;20047;-35
2022/08/27 07:03:04;;;;;;;4.30;0.93;;;17.20;99.90;;;;;;5041014;28;20045;-35
2022/08/27 07:05:34;;;;;;;4.80;0.93;;;17.30;99.90;;;;;;5037492;28;20037;-35
2022/08/27 07:08:00;;;;;;;6.90;1.00;;;17.40;99.90;;;;;;5033937;28;20494;-36
2022/08/27 07:10:26;;;;;;;3.72;0.98;;;17.50;99.90;;;;;;5030138;28;20692;-36
2022/08/27 07:12:52;;;;;;;2.88;0.95;;;17.50;99.90;;;;;;5033238;28;20044;-36
2022/08/27 07:15:18;;;;;;;6.07;1.27;;;17.60;99.90;;;;;;5034620;28;20434;-36
2022/08/27 07:17:44;;;;;;;2.65;0.90;;;17.60;99.90;;;;;;5034923;28;20175;-36
2022/08/27 07:20:11;;;;;;;2.45;0.60;;;17.70;99.90;;;;;;5033399;28;20053;-36
2022/08/27 07:22:41;;;;;;;6.63;1.08;;;18.00;99.90;;;;;;5042431;28;20041;-36
2022/08/27 07:25:11;;;;;;;4.63;0.80;;;18.10;99.90;;;;;;5034203;28;20091;-37
2022/08/27 07:27:37;;;;;;;2.40;0.85;;;18.40;99.90;;;;;;5040176;28;20099;-37
2022/08/27 07:30:05;;;;;;;3.38;0.70;;;18.50;99.90;;;;;;5044337;28;20041;-37
2022/08/27 07:32:31;;;;;;;2.10;0.60;;;18.70;99.90;;;;;;5037404;28;20049;-36
2022/08/27 07:34:56;;;;;;;4.13;0.88;;;18.80;99.90;;;;;;5040897;28;20033;-37
2022/08/27 07:37:22;;;;;;;3.17;0.70;;;18.90;99.90;;;;;;5038805;28;20086;-36
2022/08/27 07:39:48;;;;;;;2.00;0.65;;;19.00;99.90;;;;;;5035031;28;20041;-35
2022/08/27 07:44:58;;;;;;;1.80;0.63;;;19.10;99.90;;;;;;5043254;28;20128;-35
2022/08/27 07:47:24;;;;;;;2.38;0.60;;;19.10;99.90;;;;;;5036614;28;20182;-37
2022/08/27 07:49:49;;;;;;;3.53;0.70;;;19.10;99.90;;;;;;5042316;28;20037;-35
2022/08/27 07:52:16;;;;;;;3.00;0.60;;;19.20;99.90;;;;;;5038725;28;20036;-35
2022/08/27 07:54:42;;;;;;;5.43;0.90;;;19.20;99.90;;;;;;5036549;28;20050;-35
2022/08/27 07:57:09;;;;;;;3.72;0.73;;;19.30;99.90;;;;;;5039072;28;20513;-36
2022/08/27 07:59:35;;;;;;;4.13;0.98;;;19.30;99.80;;;;;;5034660;28;20051;-36
2022/08/27 08:02:01;;;;;;;3.50;0.90;;;19.30;99.90;;;;;;5033011;28;20507;-36
2022/08/27 08:04:27;;;;;;;3.08;0.63;;;19.40;99.70;;;;;;5036152;28;20037;-37
2022/08/27 08:06:54;;;;;;;3.78;0.98;;;19.50;99.60;;;;;;5038521;28;20040;-37
2022/08/27 08:09:22;;;;;;;3.35;0.93;;;19.50;99.60;;;;;;5047588;28;20042;-36
2022/08/27 08:11:50;;;;;;;2.75;0.80;;;19.70;98.90;;;;;;5042058;28;20037;-37
2022/08/27 08:14:16;;;;;;;3.13;0.93;;;19.80;98.00;;;;;;5039293;28;20084;-36
2022/08/27 08:16:42;;;;;;;4.10;0.80;;;19.90;98.10;;;;;;5042788;28;20060;-37
2022/08/27 08:19:08;;;;;;;4.45;0.70;;;19.90;97.80;;;;;;5043864;28;20049;-36
2022/08/27 08:21:34;;;;;;;2.55;0.70;;;19.90;97.30;;;;;;5043472;28;20079;-36
2022/08/27 08:24:01;;;;;;;2.60;0.68;;;20.00;97.00;;;;;;5040860;28;20087;-36
2022/08/27 08:26:27;;;;;;;2.33;0.68;;;20.00;96.10;;;;;;5042334;28;20139;-36
2022/08/27 08:28:53;;;;;;;2.30;0.70;;;20.00;95.50;;;;;;5041040;28;20079;-42
2022/08/27 08:31:20;;;;;;;3.58;0.70;;;20.00;95.80;;;;;;5039398;28;20029;-38
2022/08/27 08:33:47;;;;;;;2.95;0.50;;;20.00;95.20;;;;;;5044404;28;20040;-43
2022/08/27 08:36:14;;;;;;;2.85;0.98;;;20.10;95.00;;;;;;5032789;28;20795;-46
2022/08/27 08:38:40;;;;;;;3.15;0.68;;;20.30;94.70;;;;;;5045082;28;20497;-43
2022/08/27 08:41:37;;;;;;;3.17;0.50;;;20.40;94.10;;;;;;5042796;28;20041;-42
2022/08/27 08:44:19;;;;;;;3.45;0.60;;;20.50;93.60;;;;;;5046813;28;20045;-43
2022/08/27 08:46:57;;;;;;;3.00;0.52;;;20.50;93.30;;;;;;5037447;28;20048;-40
2022/08/27 08:49:34;;;;;;;3.47;0.68;;;20.50;92.50;;;;;;5044616;28;20045;-39
2022/08/27 08:52:26;;;;;;;5.50;0.75;;;20.60;92.40;;;;;;5046258;28;20454;-42
2022/08/27 08:54:58;;;;;;;2.87;0.70;;;20.60;92.00;;;;;;5042941;28;20044;-44
2022/08/27 08:57:29;;;;;;;3.75;0.70;;;20.60;92.20;;;;;;5039570;28;20353;-46
2022/08/27 09:00:10;;;;;;;2.73;0.43;;;20.60;92.30;;;;;;5042831;28;20074;-39
2022/08/27 09:02:37;;;;;;;3.08;0.55;;;20.50;92.30;;;;;;5042776;28;20297;-41
2022/08/27 09:05:05;;;;;;;3.78;0.70;;;20.50;92.50;;;;;;5042400;28;20052;-42
2022/08/27 09:07:33;;;;;;;3.85;0.70;;;20.50;92.50;;;;;;5040254;28;20081;-44
2022/08/27 09:10:26;;;;;;;5.80;0.98;;;20.40;92.80;;;;;;5040657;28;20515;-37
2022/08/27 09:12:57;;;;;;;4.65;0.82;;;20.40;92.40;;;;;;5041109;28;20552;-36
2022/08/27 09:15:28;;;;;;;7.10;0.75;;;20.40;92.50;;;;;;5039651;28;20037;-39
2022/08/27 09:18:09;;;;;;;5.50;0.70;;;20.50;92.00;;;;;;5040515;28;20204;-39
2022/08/27 09:20:36;;;;;;;5.47;0.77;;;20.50;91.90;;;;;;5044761;28;20104;-36
2022/08/27 09:23:07;;;;;;;4.63;0.93;;;20.50;92.40;;;;;;5044475;28;20051;-35
2022/08/27 09:25:40;;;;;;;3.25;0.75;;;20.50;92.30;;;;;;5042321;28;20181;-35
2022/08/27 09:31:05;;;;;;;2.20;0.60;;;20.70;92.00;;;;;;5035327;28;20037;-35
2022/08/27 09:33:31;;;;;;;3.58;0.63;;;20.80;91.70;;;;;;5044671;28;20446;-36
2022/08/27 09:36:02;;;;;;;6.57;0.73;;;20.90;92.00;;;;;;5040109;28;20140;-35
2022/08/27 09:38:31;;;;;;;3.53;0.70;;;20.90;91.80;;;;;;5043741;28;20049;-35
2022/08/27 09:41:00;;;;;;;7.10;0.60;;;21.00;91.70;;;;;;5044936;28;20061;-35
2022/08/27 09:43:27;;;;;;;2.55;0.57;;;21.00;91.60;;;;;;5038502;28;20041;-35
2022/08/27 09:46:16;;;;;;;4.60;0.60;;;21.10;91.20;;;;;;5036900;28;20045;-38
2022/08/27 09:48:42;;;;;;;3.33;0.77;;;21.10;90.90;;;;;;5035855;28;20037;-37
2022/08/27 09:51:12;;;;;;;3.70;0.70;;;21.20;91.00;;;;;;5041982;28;20097;-35
2022/08/27 09:53:54;;;;;;;2.83;0.50;;;21.20;90.80;;;;;;5041010;28;20426;-37
2022/08/27 09:56:33;;;;;;;3.03;0.63;;;21.30;90.60;;;;;;5038539;28;20433;-35
2022/08/27 09:59:06;;;;;;;3.92;0.80;;;21.40;90.20;;;;;;5037602;28;20048;-36
2022/08/27 10:01:37;;;;;;;2.33;0.68;;;21.50;90.10;;;;;;5043413;28;20045;-35
2022/08/27 10:04:14;;;;;;;3.65;0.70;;;21.50;89.80;;;;;;5045674;28;20118;-36
2022/08/27 10:06:50;;;;;;;4.57;0.60;;;21.60;89.00;;;;;;5040638;28;20041;-35
2022/08/27 10:09:41;;;;;;;3.97;0.50;;;21.60;86.90;;;;;;5043677;28;20059;-36
2022/08/27 10:12:13;;;;;;;7.53;0.75;;;21.60;85.80;;;;;;5040168;28;20399;-35
2022/08/27 10:14:57;;;;;;;4.78;0.73;;;21.60;85.40;;;;;;5041763;28;20053;-35
2022/08/27 10:17:53;;;;;;;3.83;0.80;;;21.60;84.20;;;;;;5041468;28;20033;-37
2022/08/27 10:20:29;;;;;;;3.67;0.60;;;21.70;85.00;;;;;;5038361;28;20577;-37
2022/08/27 10:23:10;;;;;;;3.80;0.60;;;21.90;84.20;;;;;;5044101;28;20045;-37
2022/08/27 10:25:57;;;;;;;4.15;0.77;;;22.00;84.50;;;;;;5040754;28;20044;-37
2022/08/27 10:28:29;;;;;;;4.65;0.60;;;22.10;84.30;;;;;;5041298;28;20052;-37
2022/08/27 10:31:30;;;;;;;3.55;0.90;;;22.20;83.40;;;;;;5033675;28;20493;-38
2022/08/27 10:34:43;;;;;;;4.05;0.50;;;22.30;81.60;;;;;;5043357;28;20036;-37
2022/08/27 10:37:21;;;;;;;3.53;0.50;;;22.30;80.50;;;;;;5030854;28;20083;-37
2022/08/27 10:40:08;;;;;;;3.00;0.60;;;22.40;81.00;;;;;;5039565;28;20802;-36
2022/08/27 10:42:42;;;;;;;3.40;0.60;;;22.50;80.70;;;;;;5038347;28;20128;-39
2022/08/27 10:45:45;;;;;;;4.63;0.60;;;22.50;79.20;;;;;;5038397;28;20048;-37
2022/08/27 10:48:25;;;;;;;6.22;0.60;;;22.60;76.40;;;;;;5038923;28;20063;-37
2022/08/27 10:51:01;;;;;;;2.17;0.50;;;22.70;77.70;;;;;;5042063;28;20055;-37
2022/08/27 10:53:36;;;;;;;3.30;0.45;;;22.80;75.90;;;;;;5038920;28;20036;-41
2022/08/27 10:56:12;;;;;;;2.80;0.65;;;22.90;76.10;;;;;;5034185;28;20526;-37
2022/08/27 10:58:59;;;;;;;6.15;0.68;;;23.00;75.20;;;;;;5043385;28;20119;-37
2022/08/27 11:01:45;;;;;;;3.92;0.70;;;23.10;75.40;;;;;;5034951;28;20051;-44
2022/08/27 11:04:17;;;;;;;2.05;0.57;;;23.30;74.80;;;;;;5041925;28;21654;-46
2022/08/27 11:07:01;;;;;;;2.47;0.40;;;23.30;74.20;;;;;;5041688;28;20049;-42
2022/08/27 11:09:44;;;;;;;3.85;0.80;;;23.20;73.50;;;;;;5039742;28;20045;-41
2022/08/27 11:12:16;;;;;;;3.75;0.52;;;23.20;74.30;;;;;;5031887;28;20075;-45
2022/08/27 11:14:51;;;;;;;4.20;0.70;;;23.10;74.10;;;;;;5038204;28;20521;-42
2022/08/27 11:17:29;;;;;;;2.75;0.60;;;23.10;73.50;;;;;;5034550;28;20041;-44
2022/08/27 11:20:10;;;;;;;3.30;0.60;;;23.00;73.20;;;;;;5033455;28;20806;-47
2022/08/27 11:23:08;;;;;;;2.42;0.40;;;23.00;73.50;;;;;;5032361;28;20048;-44
2022/08/27 11:25:55;;;;;;;6.13;0.70;;;22.90;73.10;;;;;;5035639;28;20069;-39
2022/08/27 11:28:43;;;;;;;2.28;0.52;;;22.90;74.40;;;;;;5040298;28;20075;-46
2022/08/27 11:31:30;;;;;;;2.38;0.60;;;22.90;73.90;;;;;;5035969;28;20045;-44
2022/08/27 11:34:01;;;;;;;2.22;0.50;;;23.10;73.90;;;;;;5036940;28;20025;-47
2022/08/27 11:36:51;;;;;;;4.45;0.80;;;23.30;73.20;;;;;;5041741;28;20045;-44
2022/08/27 11:39:55;;;;;;;3.95;0.63;;;23.40;71.80;;;;;;5035583;28;20041;-46
2022/08/27 11:42:44;;;;;;;3.38;0.60;;;23.50;68.80;;;;;;5040731;28;20110;-44
2022/08/27 11:45:21;;;;;;;4.70;0.68;;;23.50;70.40;;;;;;5040090;28;20080;-45
2022/08/27 11:47:52;;;;;;;5.00;0.80;;;23.50;69.10;;;;;;5033843;28;20073;-48
2022/08/27 11:50:20;;;;;;;2.78;0.43;;;23.60;69.80;;;;;;5040727;28;20457;-47
2022/08/27 11:53:06;;;;;;;3.13;0.60;;;23.70;68.70;;;;;;5045788;28;20079;-43
2022/08/27 11:55:37;;;;;;;5.07;0.70;;;23.90;65.80;;;;;;5037115;28;20586;-37
2022/08/27 11:58:27;;;;;;;3.00;0.85;;;24.00;66.00;;;;;;5036499;28;20494;-36
2022/08/27 12:00:53;;;;;;;2.33;0.70;;;24.10;64.70;;;;;;5041060;28;20049;-38
2022/08/27 12:03:18;;;;;;;2.88;0.60;;;24.20;66.10;;;;;;5037657;28;20501;-37
2022/08/27 12:05:53;;;;;;;2.17;0.45;;;24.20;66.00;;;;;;5036179;28;20045;-37
2022/08/27 12:08:21;;;;;;;3.53;0.50;;;24.20;66.50;;;;;;5037680;28;20053;-38
2022/08/27 12:10:57;;;;;;;3.03;0.70;;;24.20;66.20;;;;;;5035536;28;20033;-40
2022/08/27 12:14:00;;;;;;;3.72;0.85;;;24.40;63.70;;;;;;5040710;28;20120;-37
2022/08/27 12:16:54;;;;;;;3.47;0.50;;;24.50;64.30;;;;;;5036760;28;20553;-38
2022/08/27 12:19:34;;;;;;;5.03;0.50;;;24.60;64.80;;;;;;5045735;28;20163;-36
2022/08/27 12:22:12;;;;;;;3.70;0.80;;;24.70;64.00;;;;;;5038635;28;20045;-38
2022/08/27 12:24:53;;;;;;;4.88;0.60;;;24.70;64.90;;;;;;5037114;28;20086;-37
2022/08/27 12:27:38;;;;;;;3.40;0.45;;;24.70;63.30;;;;;;5040945;28;20088;-37
2022/08/27 12:30:20;;;;;;;4.15;0.60;;;24.70;62.00;;;;;;5036997;28;20080;-37
2022/08/27 12:32:50;;;;;;;1.13;0.40;;;24.70;62.90;;;;;;5044246;28;20745;-38
2022/08/27 12:35:21;;;;;;;2.08;0.50;;;24.80;62.00;;;;;;5038007;28;20478;-38
2022/08/27 12:38:14;;;;;;;3.42;0.85;;;24.90;60.40;;;;;;5036707;28;20044;-37
2022/08/27 12:40:45;;;;;;;4.75;0.50;;;25.00;57.20;;;;;;5041236;28;20072;-36
2022/08/27 12:43:13;;;;;;;2.92;0.68;;;25.10;56.30;;;;;;5037588;28;20037;-37
2022/08/27 12:45:50;;;;;;;5.05;0.80;;;25.10;55.80;;;;;;5042295;28;20513;-37
2022/08/27 12:48:22;;;;;;;1.92;0.60;;;25.10;56.00;;;;;;5043632;28;20144;-37
2022/08/27 12:50:55;;;;;;;3.28;0.60;;;25.10;55.90;;;;;;5036518;28;20033;-37
2022/08/27 12:53:41;;;;;;;6.70;0.98;;;25.10;54.10;;;;;;5035409;28;20469;-37
2022/08/27 12:56:21;;;;;;;3.42;0.50;;;25.10;54.20;;;;;;5040282;28;20099;-36
2022/08/27 12:59:11;;;;;;;6.35;0.63;;;25.40;53.20;;;;;;5043339;28;20037;-37
2022/08/27 13:02:03;;;;;;;2.53;0.50;;;25.70;53.50;;;;;;5021401;28;20448;-37
2022/08/27 13:04:32;;;;;;;3.67;0.57;;;25.90;51.30;;;;;;5032094;28;20487;-37
2022/08/27 13:06:58;;;;;;;2.63;0.60;;;26.20;48.60;;;;;;5038588;28;20038;-36
2022/08/27 13:09:33;;;;;;;2.80;0.50;;;26.30;47.40;;;;;;5049018;28;20029;-37
2022/08/27 13:12:01;;;;;;;3.63;0.60;;;26.50;46.60;;;;;;5041014;28;20104;-37
2022/08/27 13:14:35;;;;;;;6.10;1.15;;;26.80;46.30;;;;;;5040003;28;20045;-36
2022/08/27 13:17:09;;;;;;;3.75;0.60;;;26.90;45.20;;;;;;5037889;28;20025;-37